Anemona — 3EUT9 — position and weather

sailwx.info

Track history (hours):
 
Tides and Currents Weather Stations Pressure Air Temp Water Temp Dewpoint Dewpoint Depression Visibility Wind Speed Wind Dir Waves Ship Positions

Anemona

Last reported at 2017-Oct-08 17:14 UTC. Time now 2017-Oct-18 20:25 UTC.
Position S 27°01' E 153°52'.
Warning: this ship's position is 10 days out of date.

Length 192 m; draft 11.4 m.

Type: Cargo ship. MMSI: 355664000.

Date/timePositionNaut miles runAvg speedWind from/ knotsBaromVisibWave heightAir tempDewpointWater temp
2017-Oct-08 17:14S 27°01' E 153°52'32 9.5
2017-Oct-08 13:55S 27°33' E 153°50'5 9.1
2017-Oct-08 13:23S 27°38' E 153°50'3 9.0
2017-Oct-08 13:00S 27°41' E 153°49'5 9.0
2017-Oct-08 12:30S 27°45' E 153°49'5 9.0
2017-Oct-08 12:00S 27°50' E 153°49'4 9.0
2017-Oct-08 11:30S 27°54' E 153°49'5 9.0
2017-Oct-08 11:00S 27°59' E 153°48'5 9.0
2017-Oct-08 10:30S 28°03' E 153°48'5 8.9
2017-Oct-08 10:00S 28°08' E 153°48'4 8.8
2017-Oct-08 09:30S 28°12' E 153°48'4 8.7
2017-Oct-08 09:00S 28°17' E 153°47'4 8.9
2017-Oct-08 08:30S 28°21' E 153°47'5 9.2
2017-Oct-08 08:00S 28°26' E 153°47'5 9.0
2017-Oct-08 07:29S 28°30' E 153°46'24310.0
2017-Oct-07 07:08S 32°26' E 152°39'1 9.1
2017-Oct-07 07:00S 32°27' E 152°38'5 9.1
2017-Oct-07 06:30S 32°31' E 152°37'4 8.8
2017-Oct-07 06:00S 32°35' E 152°34'4 9.0
2017-Oct-07 05:30S 32°39' E 152°32'5 9.3
2017-Oct-07 05:00S 32°44' E 152°30'5 9.3
2017-Oct-07 04:30S 32°48' E 152°28'5 9.5
2017-Oct-07 04:00S 32°52' E 152°26'510.1
2017-Oct-07 03:30S 32°57' E 152°24'510.0
2017-Oct-07 03:00S 33°02' E 152°21'5 9.5
2017-Oct-07 02:30S 33°06' E 152°19'5 9.1
2017-Oct-07 02:00S 33°10' E 152°17'  
2017-Sep-29 14:04S 38°25' E 149°05'412.4
2017-Sep-29 13:46S 38°22' E 149°08'312.4
2017-Sep-29 13:29S 38°20' E 149°11'712.8
2017-Sep-29 12:58S 38°14' E 149°17'612.5
2017-Sep-29 12:28S 38°10' E 149°22'  
Track history (hours):
 
Tides and Currents Weather Stations Pressure Air Temp Water Temp Dewpoint Dewpoint Depression Visibility Wind Speed Wind Dir Waves Ship Positions

Anemona

Last reported at 2017-Oct-08 17:14 UTC. Time now 2017-Oct-18 20:25 UTC.
Position S 27°01' E 153°52'.
Warning: this ship's position is 10 days out of date.

Length 192 m; draft 11.4 m.

Type: Cargo ship. MMSI: 355664000.

Date/timePositionNaut miles runAvg speedWind from/ knotsBaromVisibWave heightAir tempDewpointWater temp
2017-Oct-08 17:14S 27°01' E 153°52'32 9.5
2017-Oct-08 13:55S 27°33' E 153°50'5 9.1
2017-Oct-08 13:23S 27°38' E 153°50'3 9.0
2017-Oct-08 13:00S 27°41' E 153°49'5 9.0
2017-Oct-08 12:30S 27°45' E 153°49'5 9.0
2017-Oct-08 12:00S 27°50' E 153°49'4 9.0
2017-Oct-08 11:30S 27°54' E 153°49'5 9.0
2017-Oct-08 11:00S 27°59' E 153°48'5 9.0
2017-Oct-08 10:30S 28°03' E 153°48'5 8.9
2017-Oct-08 10:00S 28°08' E 153°48'4 8.8
2017-Oct-08 09:30S 28°12' E 153°48'4 8.7
2017-Oct-08 09:00S 28°17' E 153°47'4 8.9
2017-Oct-08 08:30S 28°21' E 153°47'5 9.2
2017-Oct-08 08:00S 28°26' E 153°47'5 9.0
2017-Oct-08 07:29S 28°30' E 153°46'24310.0
2017-Oct-07 07:08S 32°26' E 152°39'1 9.1
2017-Oct-07 07:00S 32°27' E 152°38'5 9.1
2017-Oct-07 06:30S 32°31' E 152°37'4 8.8
2017-Oct-07 06:00S 32°35' E 152°34'4 9.0
2017-Oct-07 05:30S 32°39' E 152°32'5 9.3
2017-Oct-07 05:00S 32°44' E 152°30'5 9.3
2017-Oct-07 04:30S 32°48' E 152°28'5 9.5
2017-Oct-07 04:00S 32°52' E 152°26'510.1
2017-Oct-07 03:30S 32°57' E 152°24'510.0
2017-Oct-07 03:00S 33°02' E 152°21'5 9.5
2017-Oct-07 02:30S 33°06' E 152°19'5 9.1
2017-Oct-07 02:00S 33°10' E 152°17'  
2017-Sep-29 14:04S 38°25' E 149°05'412.4
2017-Sep-29 13:46S 38°22' E 149°08'312.4
2017-Sep-29 13:29S 38°20' E 149°11'712.8
2017-Sep-29 12:58S 38°14' E 149°17'612.5
2017-Sep-29 12:28S 38°10' E 149°22'  

Dump ship's entire track history